weather.gov     
National Weather Service

Terminal Aerodrome Forecast
NWS Homepage
This page is being discontinued on March 12, 2014.
The same data is available at this site. Please update your bookmarks.
Thank you, and we apologize for the inconvenience.
Please send an email to SR-SRH.Webmaster@noaa.gov with any concerns.


Current Version
Previous Version:    01  02  03  04  05  06  07  08  09  10  11  12  13  14  15  16  17  18  19  20  21  22  23  24  25  26  27  28  29  30  
   31  32  33  34  35  36  37  38  39  40  41  
[Printable]
840
FTUS46 KSEW 231700
TAFPAE
TAF
KPAE 231731Z 2318/2418 17013KT P6SM -SHRA SCT035 OVC060
     FM232000 19017G25KT P6SM VCSH SCT035 BKN060
      TEMPO 2320/2324 -SHRA BKN035 OVC060
     FM240000 19012KT P6SM SCT035 BKN060
      TEMPO 2400/2404 -SHRA
     FM240400 15008KT P6SM SCT025 BKN060 BKN110
     FM241200 10006KT P6SM SCT025 SCT060 BKN110=


U.S. Dept. of Commerce
NOAA National Weather Service
1325 East West Highway
Silver Spring, MD 20910
E-mail: w-nws.webmaster@noaa.gov
Page last modified: May 16, 2007
NATIONAL WEATHER SERVICE: for Safety, for Work, for Fun - FOR LIFE